sensor_id;sensor_type;location;lat;lon;timestamp;pressure;altitude;pressure_sealevel;temperature;humidity
21185;BME280;18176;49.502;11.754;2022-10-16T00:02:40;96868.72;;;23.13;60.68
21185;BME280;18176;49.502;11.754;2022-10-16T00:06:43;96865.31;;;22.98;60.76
21185;BME280;18176;49.502;11.754;2022-10-16T00:10:43;96874.03;;;22.95;61.03
21185;BME280;18176;49.502;11.754;2022-10-16T00:14:43;96875.88;;;22.86;61.54
21185;BME280;18176;49.502;11.754;2022-10-16T00:18:44;96873.31;;;23.12;60.39
21185;BME280;18176;49.502;11.754;2022-10-16T00:22:47;96877.59;;;23.04;60.86
21185;BME280;18176;49.502;11.754;2022-10-16T00:26:50;96878.47;;;22.91;60.87
21185;BME280;18176;49.502;11.754;2022-10-16T00:30:51;96884.81;;;22.95;60.95
21185;BME280;18176;49.502;11.754;2022-10-16T00:34:51;96879.22;;;22.83;61.56
21185;BME280;18176;49.502;11.754;2022-10-16T00:38:57;96835.00;;;22.57;61.46
21185;BME280;18176;49.502;11.754;2022-10-16T00:42:59;96886.78;;;23.03;60.82
21185;BME280;18176;49.502;11.754;2022-10-16T00:46:59;96884.56;;;23.05;60.72
21185;BME280;18176;49.502;11.754;2022-10-16T00:51:00;96875.53;;;23.10;60.63
21185;BME280;18176;49.502;11.754;2022-10-16T00:55:05;96867.78;;;22.86;61.07
21185;BME280;18176;49.502;11.754;2022-10-16T00:59:13;96883.00;;;22.82;61.41
21185;BME280;18176;49.502;11.754;2022-10-16T01:03:27;96878.63;;;22.64;61.66
21185;BME280;18176;49.502;11.754;2022-10-16T01:07:42;96871.72;;;22.80;61.18
21185;BME280;18176;49.502;11.754;2022-10-16T01:11:58;96885.09;;;22.85;61.03
21185;BME280;18176;49.502;11.754;2022-10-16T01:16:09;96892.09;;;22.86;61.60
21185;BME280;18176;49.502;11.754;2022-10-16T01:20:24;96872.13;;;22.65;61.45
21185;BME280;18176;49.502;11.754;2022-10-16T01:24:38;96884.75;;;22.78;61.62
21185;BME280;18176;49.502;11.754;2022-10-16T01:28:48;96888.69;;;22.72;61.80
21185;BME280;18176;49.502;11.754;2022-10-16T01:32:55;96889.59;;;22.68;61.56
21185;BME280;18176;49.502;11.754;2022-10-16T01:37:04;96894.97;;;22.68;61.85
21185;BME280;18176;49.502;11.754;2022-10-16T01:41:10;96890.53;;;22.50;62.04
21185;BME280;18176;49.502;11.754;2022-10-16T01:45:18;96891.16;;;22.60;62.44
21185;BME280;18176;49.502;11.754;2022-10-16T01:49:21;96892.19;;;22.59;62.13
21185;BME280;18176;49.502;11.754;2022-10-16T01:53:24;96890.84;;;22.48;62.65
21185;BME280;18176;49.502;11.754;2022-10-16T01:57:26;96900.91;;;22.34;62.85
21185;BME280;18176;49.502;11.754;2022-10-16T02:01:34;96903.22;;;22.27;63.30
21185;BME280;18176;49.502;11.754;2022-10-16T02:05:42;96898.59;;;22.41;63.19
21185;BME280;18176;49.502;11.754;2022-10-16T02:09:45;96885.22;;;22.58;61.91
21185;BME280;18176;49.502;11.754;2022-10-16T02:13:51;96883.69;;;22.44;62.75
21185;BME280;18176;49.502;11.754;2022-10-16T02:17:56;96897.66;;;22.46;62.77
21185;BME280;18176;49.502;11.754;2022-10-16T02:22:00;96904.34;;;22.48;62.47
21185;BME280;18176;49.502;11.754;2022-10-16T02:26:07;96922.81;;;22.68;62.05
21185;BME280;18176;49.502;11.754;2022-10-16T02:30:13;96925.38;;;22.73;61.63
21185;BME280;18176;49.502;11.754;2022-10-16T02:34:21;96939.25;;;22.58;62.62
21185;BME280;18176;49.502;11.754;2022-10-16T02:38:25;96928.22;;;22.55;62.40
21185;BME280;18176;49.502;11.754;2022-10-16T02:42:34;96931.59;;;22.74;61.99
21185;BME280;18176;49.502;11.754;2022-10-16T02:46:34;96930.00;;;22.73;61.75
21185;BME280;18176;49.502;11.754;2022-10-16T02:50:37;96928.47;;;22.80;61.43
21185;BME280;18176;49.502;11.754;2022-10-16T02:54:37;96922.25;;;22.80;61.61
21185;BME280;18176;49.502;11.754;2022-10-16T02:58:37;96917.13;;;23.00;60.80
21185;BME280;18176;49.502;11.754;2022-10-16T03:02:38;96916.75;;;23.16;60.58
21185;BME280;18176;49.502;11.754;2022-10-16T03:06:41;96918.13;;;22.82;61.02
21185;BME280;18176;49.502;11.754;2022-10-16T03:10:41;96923.28;;;22.92;61.16
21185;BME280;18176;49.502;11.754;2022-10-16T03:14:41;96891.03;;;22.65;61.02
21185;BME280;18176;49.502;11.754;2022-10-16T03:18:42;96928.44;;;23.02;60.56
21185;BME280;18176;49.502;11.754;2022-10-16T03:22:44;96925.19;;;22.92;60.61
21185;BME280;18176;49.502;11.754;2022-10-16T03:26:48;96929.31;;;22.89;60.73
21185;BME280;18176;49.502;11.754;2022-10-16T03:30:48;96935.69;;;22.93;60.31
21185;BME280;18176;49.502;11.754;2022-10-16T03:34:48;96939.63;;;22.87;60.58
21185;BME280;18176;49.502;11.754;2022-10-16T03:38:52;96945.00;;;23.10;60.15
21185;BME280;18176;49.502;11.754;2022-10-16T03:42:52;96941.09;;;23.16;60.32
21185;BME280;18176;49.502;11.754;2022-10-16T03:46:54;96934.72;;;22.89;60.48
21185;BME280;18176;49.502;11.754;2022-10-16T03:50:55;96938.94;;;22.82;60.78
21185;BME280;18176;49.502;11.754;2022-10-16T03:54:57;96928.69;;;22.70;61.06
21185;BME280;18176;49.502;11.754;2022-10-16T03:58:57;96950.19;;;22.75;61.08
21185;BME280;18176;49.502;11.754;2022-10-16T04:02:57;96951.53;;;22.86;60.82
21185;BME280;18176;49.502;11.754;2022-10-16T04:06:58;96953.56;;;22.81;60.90
21185;BME280;18176;49.502;11.754;2022-10-16T04:11:01;96966.44;;;22.84;61.10
21185;BME280;18176;49.502;11.754;2022-10-16T04:15:01;96961.72;;;23.12;59.84
21185;BME280;18176;49.502;11.754;2022-10-16T04:19:01;96954.13;;;23.14;59.65
21185;BME280;18176;49.502;11.754;2022-10-16T04:23:01;96949.84;;;22.90;60.61
21185;BME280;18176;49.502;11.754;2022-10-16T04:27:04;96963.56;;;23.02;60.50
21185;BME280;18176;49.502;11.754;2022-10-16T04:31:05;96954.91;;;22.92;60.79
21185;BME280;18176;49.502;11.754;2022-10-16T04:35:07;96966.34;;;22.89;60.70
21185;BME280;18176;49.502;11.754;2022-10-16T04:39:08;96910.50;;;22.40;61.23
21185;BME280;18176;49.502;11.754;2022-10-16T04:43:11;96967.94;;;22.90;60.97
21185;BME280;18176;49.502;11.754;2022-10-16T04:47:12;96970.97;;;22.88;60.73
21185;BME280;18176;49.502;11.754;2022-10-16T04:51:13;96977.69;;;22.77;61.14
21185;BME280;18176;49.502;11.754;2022-10-16T04:55:13;96979.84;;;22.67;61.13
21185;BME280;18176;49.502;11.754;2022-10-16T04:59:17;96974.47;;;22.53;61.22
21185;BME280;18176;49.502;11.754;2022-10-16T05:03:17;96994.47;;;22.88;60.60
21185;BME280;18176;49.502;11.754;2022-10-16T05:07:17;96959.69;;;22.73;60.16
21185;BME280;18176;49.502;11.754;2022-10-16T05:11:18;96987.88;;;23.02;59.85
21185;BME280;18176;49.502;11.754;2022-10-16T05:15:20;96990.22;;;23.18;59.07
21185;BME280;18176;49.502;11.754;2022-10-16T05:19:22;96984.41;;;23.02;60.25
21185;BME280;18176;49.502;11.754;2022-10-16T05:23:24;96981.44;;;23.12;59.43
21185;BME280;18176;49.502;11.754;2022-10-16T05:27:24;96982.63;;;22.97;60.12
21185;BME280;18176;49.502;11.754;2022-10-16T05:31:28;96984.97;;;22.90;59.89
21185;BME280;18176;49.502;11.754;2022-10-16T05:35:28;96979.06;;;22.88;60.43
21185;BME280;18176;49.502;11.754;2022-10-16T05:39:28;96975.06;;;22.86;60.50
21185;BME280;18176;49.502;11.754;2022-10-16T05:43:29;96958.47;;;22.43;60.92
21185;BME280;18176;49.502;11.754;2022-10-16T05:47:32;96981.25;;;22.64;60.72
21185;BME280;18176;49.502;11.754;2022-10-16T05:51:32;96992.50;;;22.44;61.58
21185;BME280;18176;49.502;11.754;2022-10-16T05:55:32;96997.50;;;22.37;61.45
21185;BME280;18176;49.502;11.754;2022-10-16T05:59:32;97001.47;;;22.53;61.10
21185;BME280;18176;49.502;11.754;2022-10-16T06:03:35;97007.41;;;22.77;60.75
21185;BME280;18176;49.502;11.754;2022-10-16T06:07:36;97001.25;;;22.63;60.81
21185;BME280;18176;49.502;11.754;2022-10-16T06:11:36;97016.38;;;22.86;59.89
21185;BME280;18176;49.502;11.754;2022-10-16T06:15:37;97026.06;;;22.65;60.25
21185;BME280;18176;49.502;11.754;2022-10-16T06:19:41;97034.81;;;22.84;60.23
21185;BME280;18176;49.502;11.754;2022-10-16T06:23:41;97055.84;;;23.10;59.77
21185;BME280;18176;49.502;11.754;2022-10-16T06:27:43;97052.25;;;23.00;60.54
21185;BME280;18176;49.502;11.754;2022-10-16T06:31:43;97060.19;;;22.97;60.52
21185;BME280;18176;49.502;11.754;2022-10-16T06:35:46;97063.19;;;22.95;59.70
21185;BME280;18176;49.502;11.754;2022-10-16T06:39:46;97072.25;;;23.13;59.84
21185;BME280;18176;49.502;11.754;2022-10-16T06:43:47;97071.59;;;23.30;59.67
21185;BME280;18176;49.502;11.754;2022-10-16T06:47:47;97075.88;;;23.31;59.77
21185;BME280;18176;49.502;11.754;2022-10-16T06:51:50;97074.81;;;23.62;58.67
21185;BME280;18176;49.502;11.754;2022-10-16T06:55:50;97076.13;;;23.96;57.79
21185;BME280;18176;49.502;11.754;2022-10-16T06:59:50;97080.13;;;23.98;57.96
21185;BME280;18176;49.502;11.754;2022-10-16T07:03:51;97081.31;;;24.54;56.60
21185;BME280;18176;49.502;11.754;2022-10-16T07:07:55;97088.03;;;24.65;55.81
21185;BME280;18176;49.502;11.754;2022-10-16T07:11:55;97095.50;;;24.59;55.87
21185;BME280;18176;49.502;11.754;2022-10-16T07:15:55;97066.75;;;24.41;55.98
21185;BME280;18176;49.502;11.754;2022-10-16T07:19:55;97096.56;;;24.97;55.16
21185;BME280;18176;49.502;11.754;2022-10-16T07:23:59;97093.81;;;25.40;53.91
21185;BME280;18176;49.502;11.754;2022-10-16T07:28:00;97108.53;;;25.39;53.06
21185;BME280;18176;49.502;11.754;2022-10-16T07:32:02;97119.88;;;25.50;53.61
21185;BME280;18176;49.502;11.754;2022-10-16T07:36:03;97123.53;;;25.62;52.61
21185;BME280;18176;49.502;11.754;2022-10-16T07:40:08;97129.38;;;25.90;51.95
21185;BME280;18176;49.502;11.754;2022-10-16T07:44:09;97150.47;;;25.42;52.87
21185;BME280;18176;49.502;11.754;2022-10-16T07:48:09;97133.41;;;25.24;53.84
21185;BME280;18176;49.502;11.754;2022-10-16T07:52:09;97134.03;;;25.38;53.33
21185;BME280;18176;49.502;11.754;2022-10-16T07:56:12;97147.78;;;25.67;52.51
21185;BME280;18176;49.502;11.754;2022-10-16T08:00:13;97152.75;;;25.48;52.98
21185;BME280;18176;49.502;11.754;2022-10-16T08:04:13;97156.06;;;25.28;53.56
21185;BME280;18176;49.502;11.754;2022-10-16T08:08:15;97168.56;;;25.46;53.31
21185;BME280;18176;49.502;11.754;2022-10-16T08:12:18;97177.56;;;26.02;51.65
21185;BME280;18176;49.502;11.754;2022-10-16T08:16:18;97162.34;;;26.35;51.43
21185;BME280;18176;49.502;11.754;2022-10-16T08:20:18;97130.75;;;26.22;50.87
21185;BME280;18176;49.502;11.754;2022-10-16T08:24:18;97145.38;;;25.83;52.25
21185;BME280;18176;49.502;11.754;2022-10-16T08:28:22;97143.47;;;25.41;53.48
21185;BME280;18176;49.502;11.754;2022-10-16T08:32:23;97133.41;;;25.41;53.43
21185;BME280;18176;49.502;11.754;2022-10-16T08:36:24;97155.75;;;25.90;52.66
21185;BME280;18176;49.502;11.754;2022-10-16T08:40:26;97167.56;;;26.11;52.01
21185;BME280;18176;49.502;11.754;2022-10-16T08:45:08;97166.66;;;25.55;52.97
21185;BME280;18176;49.502;11.754;2022-10-16T08:49:17;97173.25;;;26.18;51.82
21185;BME280;18176;49.502;11.754;2022-10-16T08:53:23;97167.16;;;26.38;50.92
21185;BME280;18176;49.502;11.754;2022-10-16T08:57:26;97160.50;;;26.10;51.19
21185;BME280;18176;49.502;11.754;2022-10-16T09:01:41;97169.88;;;26.67;50.48
21185;BME280;18176;49.502;11.754;2022-10-16T09:05:57;97154.53;;;26.33;50.17
21185;BME280;18176;49.502;11.754;2022-10-16T09:10:22;97162.56;;;26.04;51.41
21185;BME280;18176;49.502;11.754;2022-10-16T09:14:50;97174.28;;;25.88;51.98
21185;BME280;18176;49.502;11.754;2022-10-16T09:19:12;97161.44;;;26.14;51.61
21185;BME280;18176;49.502;11.754;2022-10-16T09:23:17;97165.06;;;26.81;50.38
21185;BME280;18176;49.502;11.754;2022-10-16T09:27:18;97166.81;;;27.06;49.21
21185;BME280;18176;49.502;11.754;2022-10-16T09:31:20;97170.81;;;27.30;48.78
21185;BME280;18176;49.502;11.754;2022-10-16T09:35:37;97167.38;;;27.62;48.38
21185;BME280;18176;49.502;11.754;2022-10-16T09:39:44;97168.75;;;28.21;46.69
21185;BME280;18176;49.502;11.754;2022-10-16T09:43:52;97168.59;;;28.63;45.86
21185;BME280;18176;49.502;11.754;2022-10-16T09:47:53;97175.91;;;29.19;44.36
21185;BME280;18176;49.502;11.754;2022-10-16T09:52:12;97174.50;;;29.25;45.32
21185;BME280;18176;49.502;11.754;2022-10-16T09:56:22;97171.66;;;30.44;42.29
21185;BME280;18176;49.502;11.754;2022-10-16T10:00:24;97170.09;;;31.60;40.91
21185;BME280;18176;49.502;11.754;2022-10-16T10:04:25;97173.31;;;32.65;39.00
21185;BME280;18176;49.502;11.754;2022-10-16T10:08:28;97150.56;;;32.00;39.50
21185;BME280;18176;49.502;11.754;2022-10-16T10:12:30;97188.88;;;30.61;41.10
21185;BME280;18176;49.502;11.754;2022-10-16T10:16:34;97195.41;;;30.28;42.48
21185;BME280;18176;49.502;11.754;2022-10-16T10:20:37;97203.09;;;30.23;42.66
21185;BME280;18176;49.502;11.754;2022-10-16T10:24:41;97205.16;;;29.58;42.49
21185;BME280;18176;49.502;11.754;2022-10-16T10:28:56;97190.16;;;28.56;44.59
21185;BME280;18176;49.502;11.754;2022-10-16T10:33:20;97156.97;;;28.41;45.01
21185;BME280;18176;49.502;11.754;2022-10-16T10:37:47;97205.16;;;28.49;45.13
21185;BME280;18176;49.502;11.754;2022-10-16T10:42:21;97155.13;;;28.21;45.17
21185;BME280;18176;49.502;11.754;2022-10-16T10:46:34;97190.91;;;28.32;45.74
21185;BME280;18176;49.502;11.754;2022-10-16T10:50:46;97183.84;;;28.88;44.68
21185;BME280;18176;49.502;11.754;2022-10-16T10:54:54;97187.00;;;29.02;45.13
21185;BME280;18176;49.502;11.754;2022-10-16T10:59:13;97192.22;;;29.43;44.13
21185;BME280;18176;49.502;11.754;2022-10-16T11:03:48;97192.69;;;30.28;42.52
21185;BME280;18176;49.502;11.754;2022-10-16T11:08:00;97182.88;;;30.55;41.40
21185;BME280;18176;49.502;11.754;2022-10-16T11:12:06;97170.47;;;31.23;40.44
21185;BME280;18176;49.502;11.754;2022-10-16T11:16:19;97188.16;;;30.48;41.51
21185;BME280;18176;49.502;11.754;2022-10-16T11:20:26;97181.41;;;31.23;40.37
21185;BME280;18176;49.502;11.754;2022-10-16T11:24:41;97197.00;;;31.92;39.26
21185;BME280;18176;49.502;11.754;2022-10-16T11:28:48;97185.19;;;32.49;37.59
21185;BME280;18176;49.502;11.754;2022-10-16T11:33:04;97187.91;;;32.08;37.25
21185;BME280;18176;49.502;11.754;2022-10-16T11:37:16;97180.47;;;32.27;37.33
21185;BME280;18176;49.502;11.754;2022-10-16T11:41:27;97180.97;;;32.78;35.75
21185;BME280;18176;49.502;11.754;2022-10-16T11:45:39;97181.31;;;32.31;37.08
21185;BME280;18176;49.502;11.754;2022-10-16T11:49:45;97169.63;;;32.34;37.44
21185;BME280;18176;49.502;11.754;2022-10-16T11:53:56;97178.59;;;32.12;37.22
21185;BME280;18176;49.502;11.754;2022-10-16T11:58:04;97177.75;;;31.70;37.88
21185;BME280;18176;49.502;11.754;2022-10-16T12:02:28;97183.59;;;32.71;36.81
21185;BME280;18176;49.502;11.754;2022-10-16T12:06:40;97179.22;;;32.93;35.51
21185;BME280;18176;49.502;11.754;2022-10-16T12:10:46;97182.75;;;33.16;35.55
21185;BME280;18176;49.502;11.754;2022-10-16T12:14:46;97180.09;;;33.49;34.65
21185;BME280;18176;49.502;11.754;2022-10-16T12:19:13;97195.13;;;33.55;34.42
21185;BME280;18176;49.502;11.754;2022-10-16T12:23:21;97193.94;;;33.30;34.46
21185;BME280;18176;49.502;11.754;2022-10-16T12:27:28;97205.59;;;32.75;34.27
21185;BME280;18176;49.502;11.754;2022-10-16T12:31:42;97201.66;;;32.30;35.54
21185;BME280;18176;49.502;11.754;2022-10-16T12:35:55;97189.69;;;32.84;34.62
21185;BME280;18176;49.502;11.754;2022-10-16T12:39:59;97199.66;;;33.44;34.17
21185;BME280;18176;49.502;11.754;2022-10-16T12:44:23;97195.69;;;35.87;30.48
21185;BME280;18176;49.502;11.754;2022-10-16T12:48:23;97195.19;;;36.99;29.28
21185;BME280;18176;49.502;11.754;2022-10-16T12:52:43;97200.69;;;37.17;28.46
21185;BME280;18176;49.502;11.754;2022-10-16T12:57:02;97208.38;;;36.02;29.03
21185;BME280;18176;49.502;11.754;2022-10-16T13:01:19;97207.66;;;36.19;28.77
21185;BME280;18176;49.502;11.754;2022-10-16T13:05:41;97208.69;;;35.18;30.33
21185;BME280;18176;49.502;11.754;2022-10-16T13:09:59;97220.81;;;34.66;31.22
21185;BME280;18176;49.502;11.754;2022-10-16T13:14:45;97206.63;;;35.11;30.24
21185;BME280;18176;49.502;11.754;2022-10-16T13:19:08;97178.47;;;36.18;29.65
21185;BME280;18176;49.502;11.754;2022-10-16T13:23:20;97196.06;;;35.17;30.12
21185;BME280;18176;49.502;11.754;2022-10-16T13:27:36;97216.28;;;35.39;30.14
21185;BME280;18176;49.502;11.754;2022-10-16T13:31:44;97223.56;;;34.66;30.28
21185;BME280;18176;49.502;11.754;2022-10-16T13:35:50;97214.63;;;34.03;31.37
21185;BME280;18176;49.502;11.754;2022-10-16T13:39:51;97225.50;;;33.96;31.70
21185;BME280;18176;49.502;11.754;2022-10-16T13:44:02;97227.75;;;33.86;31.75
21185;BME280;18176;49.502;11.754;2022-10-16T13:48:09;97231.56;;;33.26;33.02
21185;BME280;18176;49.502;11.754;2022-10-16T13:52:18;97224.69;;;33.39;33.79
21185;BME280;18176;49.502;11.754;2022-10-16T13:56:22;97221.22;;;33.16;33.78
21185;BME280;18176;49.502;11.754;2022-10-16T14:00:28;97228.06;;;32.58;34.66
21185;BME280;18176;49.502;11.754;2022-10-16T14:04:33;97235.59;;;33.06;34.59
21185;BME280;18176;49.502;11.754;2022-10-16T14:08:44;97243.47;;;32.88;34.35
21185;BME280;18176;49.502;11.754;2022-10-16T14:12:56;97240.03;;;33.66;33.90
21185;BME280;18176;49.502;11.754;2022-10-16T14:16:56;97236.50;;;33.96;33.15
21185;BME280;18176;49.502;11.754;2022-10-16T14:21:10;97239.59;;;33.38;34.28
21185;BME280;18176;49.502;11.754;2022-10-16T14:25:27;97230.19;;;34.25;33.25
21185;BME280;18176;49.502;11.754;2022-10-16T14:29:29;97239.41;;;35.23;31.88
21185;BME280;18176;49.502;11.754;2022-10-16T14:33:33;97236.56;;;35.64;31.22
21185;BME280;18176;49.502;11.754;2022-10-16T14:37:36;97248.03;;;36.80;30.20
21185;BME280;18176;49.502;11.754;2022-10-16T14:41:46;97244.47;;;36.76;30.18
21185;BME280;18176;49.502;11.754;2022-10-16T14:45:52;97252.75;;;36.58;29.68
21185;BME280;18176;49.502;11.754;2022-10-16T14:49:54;97266.50;;;35.65;31.04
21185;BME280;18176;49.502;11.754;2022-10-16T14:53:58;97258.56;;;35.57;31.27
21185;BME280;18176;49.502;11.754;2022-10-16T14:57:59;97257.00;;;35.63;31.35
21185;BME280;18176;49.502;11.754;2022-10-16T15:01:59;97254.06;;;35.96;30.86
21185;BME280;18176;49.502;11.754;2022-10-16T15:06:00;97244.78;;;36.39;30.06
21185;BME280;18176;49.502;11.754;2022-10-16T15:10:04;97249.47;;;36.28;30.13
21185;BME280;18176;49.502;11.754;2022-10-16T15:14:04;97258.56;;;35.57;30.69
21185;BME280;18176;49.502;11.754;2022-10-16T15:18:05;97256.84;;;34.54;32.01
21185;BME280;18176;49.502;11.754;2022-10-16T15:22:05;97265.69;;;33.51;33.82
21185;BME280;18176;49.502;11.754;2022-10-16T15:26:08;97258.00;;;32.89;34.53
21185;BME280;18176;49.502;11.754;2022-10-16T15:30:10;97247.31;;;32.00;35.85
21185;BME280;18176;49.502;11.754;2022-10-16T15:34:10;97265.03;;;31.52;37.27
21185;BME280;18176;49.502;11.754;2022-10-16T15:38:12;97266.22;;;31.04;38.49
21185;BME280;18176;49.502;11.754;2022-10-16T15:42:16;97265.53;;;30.48;39.72
21185;BME280;18176;49.502;11.754;2022-10-16T15:46:19;97277.88;;;30.03;41.18
21185;BME280;18176;49.502;11.754;2022-10-16T15:50:20;97270.47;;;29.75;41.85
21185;BME280;18176;49.502;11.754;2022-10-16T15:54:20;97274.13;;;29.43;42.74
21185;BME280;18176;49.502;11.754;2022-10-16T15:58:23;97285.53;;;29.33;43.05
21185;BME280;18176;49.502;11.754;2022-10-16T16:02:23;97283.78;;;29.29;43.89
21185;BME280;18176;49.502;11.754;2022-10-16T16:06:24;97295.59;;;29.08;46.01
21185;BME280;18176;49.502;11.754;2022-10-16T16:10:24;97291.28;;;28.95;45.34
21185;BME280;18176;49.502;11.754;2022-10-16T16:14:28;97293.63;;;28.73;45.48
21185;BME280;18176;49.502;11.754;2022-10-16T16:18:28;97282.81;;;28.31;46.20
21185;BME280;18176;49.502;11.754;2022-10-16T16:22:28;97284.00;;;28.22;47.04
21185;BME280;18176;49.502;11.754;2022-10-16T16:26:30;97303.44;;;28.20;48.86
21185;BME280;18176;49.502;11.754;2022-10-16T16:30:35;97313.56;;;28.52;48.43
21185;BME280;18176;49.502;11.754;2022-10-16T16:34:36;97296.63;;;28.26;49.14
21185;BME280;18176;49.502;11.754;2022-10-16T16:38:36;97329.94;;;28.65;47.57
21185;BME280;18176;49.502;11.754;2022-10-16T16:42:36;97313.38;;;28.70;47.55
21185;BME280;18176;49.502;11.754;2022-10-16T16:46:39;97329.09;;;28.73;46.94
21185;BME280;18176;49.502;11.754;2022-10-16T16:50:40;97348.47;;;28.38;46.75
21185;BME280;18176;49.502;11.754;2022-10-16T16:54:40;97332.66;;;28.11;47.43
21185;BME280;18176;49.502;11.754;2022-10-16T16:58:41;97334.91;;;28.09;48.00
21185;BME280;18176;49.502;11.754;2022-10-16T17:02:43;97336.16;;;27.91;47.94
21185;BME280;18176;49.502;11.754;2022-10-16T17:06:47;97355.72;;;27.64;48.61
21185;BME280;18176;49.502;11.754;2022-10-16T17:10:48;97347.22;;;27.28;48.49
21185;BME280;18176;49.502;11.754;2022-10-16T17:14:51;97352.69;;;27.28;48.92
21185;BME280;18176;49.502;11.754;2022-10-16T17:18:54;97369.44;;;27.00;49.94
21185;BME280;18176;49.502;11.754;2022-10-16T17:22:54;97376.00;;;26.82;51.17
21185;BME280;18176;49.502;11.754;2022-10-16T17:26:54;97379.84;;;26.64;51.16
21185;BME280;18176;49.502;11.754;2022-10-16T17:30:55;97393.13;;;26.57;51.80
21185;BME280;18176;49.502;11.754;2022-10-16T17:34:58;97385.47;;;26.25;52.40
21185;BME280;18176;49.502;11.754;2022-10-16T17:38:58;97394.41;;;26.34;52.56
21185;BME280;18176;49.502;11.754;2022-10-16T17:43:01;97381.31;;;26.19;53.25
21185;BME280;18176;49.502;11.754;2022-10-16T17:47:01;97380.84;;;26.17;52.74
21185;BME280;18176;49.502;11.754;2022-10-16T17:51:06;97397.16;;;26.17;53.04
21185;BME280;18176;49.502;11.754;2022-10-16T17:55:08;97395.88;;;26.14;53.19
21185;BME280;18176;49.502;11.754;2022-10-16T17:59:10;97361.25;;;25.63;54.15
21185;BME280;18176;49.502;11.754;2022-10-16T18:03:11;97396.41;;;25.77;54.34
21185;BME280;18176;49.502;11.754;2022-10-16T18:07:13;97405.22;;;25.83;53.81
21185;BME280;18176;49.502;11.754;2022-10-16T18:11:14;97414.66;;;25.85;54.30
21185;BME280;18176;49.502;11.754;2022-10-16T18:15:14;97417.97;;;25.73;55.22
21185;BME280;18176;49.502;11.754;2022-10-16T18:19:15;97411.97;;;25.46;56.07
21185;BME280;18176;49.502;11.754;2022-10-16T18:23:17;97425.31;;;25.42;55.99
21185;BME280;18176;49.502;11.754;2022-10-16T18:27:18;97419.41;;;25.40;56.13
21185;BME280;18176;49.502;11.754;2022-10-16T18:31:19;97428.31;;;25.32;56.47
21185;BME280;18176;49.502;11.754;2022-10-16T18:35:23;97379.47;;;25.32;55.22
21185;BME280;18176;49.502;11.754;2022-10-16T18:39:26;97417.59;;;25.27;56.08
21185;BME280;18176;49.502;11.754;2022-10-16T18:43:26;97421.13;;;25.05;56.87
21185;BME280;18176;49.502;11.754;2022-10-16T18:47:28;97429.03;;;25.16;56.26
21185;BME280;18176;49.502;11.754;2022-10-16T18:51:30;97436.59;;;25.27;56.41
21185;BME280;18176;49.502;11.754;2022-10-16T18:55:33;97442.00;;;25.27;56.24
21185;BME280;18176;49.502;11.754;2022-10-16T18:59:33;97445.00;;;25.26;56.09
21185;BME280;18176;49.502;11.754;2022-10-16T19:03:36;97438.53;;;25.35;55.92
21185;BME280;18176;49.502;11.754;2022-10-16T19:07:37;97446.09;;;25.16;56.47
21185;BME280;18176;49.502;11.754;2022-10-16T19:11:43;97443.88;;;25.18;56.05
21185;BME280;18176;49.502;11.754;2022-10-16T19:15:44;97462.19;;;25.13;56.60
21185;BME280;18176;49.502;11.754;2022-10-16T19:19:54;97441.75;;;25.06;56.09
21185;BME280;18176;49.502;11.754;2022-10-16T19:24:00;97455.19;;;25.12;56.39
21185;BME280;18176;49.502;11.754;2022-10-16T19:28:04;97453.59;;;25.19;56.19
21185;BME280;18176;49.502;11.754;2022-10-16T19:32:05;97455.69;;;25.22;55.78
21185;BME280;18176;49.502;11.754;2022-10-16T19:36:10;97467.31;;;25.14;56.00
21185;BME280;18176;49.502;11.754;2022-10-16T19:40:11;97450.06;;;24.88;56.55
21185;BME280;18176;49.502;11.754;2022-10-16T19:44:16;97457.06;;;24.89;56.66
21185;BME280;18176;49.502;11.754;2022-10-16T19:48:16;97413.81;;;24.39;56.73
21185;BME280;18176;49.502;11.754;2022-10-16T19:52:39;97480.13;;;24.78;56.87
21185;BME280;18176;49.502;11.754;2022-10-16T19:56:40;97484.22;;;24.75;56.66
21185;BME280;18176;49.502;11.754;2022-10-16T20:00:43;97494.94;;;24.58;57.02
21185;BME280;18176;49.502;11.754;2022-10-16T20:04:43;97490.19;;;24.28;57.41
21185;BME280;18176;49.502;11.754;2022-10-16T20:08:45;97497.34;;;24.10;57.53
21185;BME280;18176;49.502;11.754;2022-10-16T20:12:48;97501.63;;;24.11;57.93
21185;BME280;18176;49.502;11.754;2022-10-16T20:16:51;97507.44;;;23.91;58.39
21185;BME280;18176;49.502;11.754;2022-10-16T20:20:52;97499.22;;;23.69;58.50
21185;BME280;18176;49.502;11.754;2022-10-16T20:24:52;97495.00;;;23.63;59.35
21185;BME280;18176;49.502;11.754;2022-10-16T20:28:53;97512.22;;;23.67;59.21
21185;BME280;18176;49.502;11.754;2022-10-16T20:32:56;97506.63;;;23.50;59.52
21185;BME280;18176;49.502;11.754;2022-10-16T20:36:56;97526.84;;;23.52;60.24
21185;BME280;18176;49.502;11.754;2022-10-16T20:41:02;97534.56;;;23.45;59.49
21185;BME280;18176;49.502;11.754;2022-10-16T20:45:05;97537.97;;;23.51;59.72
21185;BME280;18176;49.502;11.754;2022-10-16T20:49:09;97538.97;;;23.23;59.85
21185;BME280;18176;49.502;11.754;2022-10-16T20:53:32;97541.56;;;23.28;59.55
21185;BME280;18176;49.502;11.754;2022-10-16T20:57:35;97546.50;;;23.07;59.71
21185;BME280;18176;49.502;11.754;2022-10-16T21:01:36;97548.66;;;22.91;60.20
21185;BME280;18176;49.502;11.754;2022-10-16T21:05:42;97547.22;;;22.80;60.79
21185;BME280;18176;49.502;11.754;2022-10-16T21:09:42;97554.94;;;22.68;60.63
21185;BME280;18176;49.502;11.754;2022-10-16T21:13:43;97548.41;;;22.51;60.87
21185;BME280;18176;49.502;11.754;2022-10-16T21:17:44;97551.25;;;22.41;60.69
21185;BME280;18176;49.502;11.754;2022-10-16T21:21:53;97548.22;;;22.23;61.60